createdAt,value
2018-11-07T00:01:56.737Z,61.4
2018-11-07T00:06:52.271Z,61.5
2018-11-07T00:11:47.319Z,61.3
2018-11-07T00:16:42.629Z,61.4
2018-11-07T00:21:38.023Z,61.4
2018-11-07T00:26:33.432Z,61.5
2018-11-07T00:31:28.766Z,61.2
2018-11-07T00:36:24.294Z,61.4
2018-11-07T00:41:19.506Z,61.3
2018-11-07T00:46:15.138Z,61.1
2018-11-07T00:51:10.024Z,61.2
2018-11-07T00:56:07.649Z,61.3
2018-11-07T01:01:02.324Z,61
2018-11-07T01:05:57.309Z,61.1
2018-11-07T01:10:52.667Z,60.7
2018-11-07T01:15:47.819Z,59.1
2018-11-07T01:20:43.032Z,59
2018-11-07T01:25:38.471Z,58.5
2018-11-07T01:30:33.803Z,58.3
2018-11-07T01:35:28.475Z,57.9
2018-11-07T01:40:23.654Z,58
2018-11-07T01:45:18.771Z,58
2018-11-07T01:50:14.133Z,57.8
2018-11-07T01:55:09.940Z,57.7
2018-11-07T02:00:05.130Z,57.3
2018-11-07T02:05:00.578Z,57.4
2018-11-07T02:09:55.942Z,57.2
2018-11-07T02:14:51.284Z,57.2
2018-11-07T02:19:46.566Z,57.2
2018-11-07T02:24:42.489Z,57.3
2018-11-07T02:29:37.519Z,57.1
2018-11-07T02:34:32.502Z,57.2
2018-11-07T02:39:27.674Z,56.6
2018-11-07T02:44:22.576Z,56.9
2018-11-07T02:49:17.405Z,57.1
2018-11-07T02:54:13.016Z,56.9
2018-11-07T02:59:08.290Z,57
2018-11-07T03:04:03.705Z,57.1
2018-11-07T03:08:58.913Z,57
2018-11-07T03:13:54.351Z,57.1
2018-11-07T03:18:49.546Z,57.1
2018-11-07T03:23:44.609Z,57.1
2018-11-07T03:28:39.843Z,57.1
2018-11-07T03:33:35.456Z,57.1
2018-11-07T03:38:30.615Z,57
2018-11-07T03:43:25.290Z,56.9
2018-11-07T03:48:20.400Z,56.9
2018-11-07T03:53:15.993Z,57
2018-11-07T03:58:11.401Z,57
2018-11-07T04:03:06.795Z,57.3
2018-11-07T04:08:02.214Z,57.2
2018-11-07T04:12:57.446Z,57.3
2018-11-07T04:17:52.668Z,57.3
2018-11-07T04:22:47.873Z,57.5
2018-11-07T04:27:43.080Z,57.5
2018-11-07T04:32:38.568Z,57.8
2018-11-07T04:37:33.787Z,58
2018-11-07T04:42:28.909Z,58.1
2018-11-07T04:47:23.825Z,58.2
2018-11-07T04:52:19.101Z,58.3
2018-11-07T04:57:14.372Z,58.2
2018-11-07T05:02:09.988Z,57.8
2018-11-07T05:07:05.144Z,58.5
2018-11-07T05:12:00.260Z,58.2
2018-11-07T05:16:55.356Z,58.5
2018-11-07T05:21:50.595Z,58.6
2018-11-07T05:26:45.862Z,58.7
2018-11-07T05:31:41.121Z,59
2018-11-07T05:36:36.383Z,59
2018-11-07T05:41:33.442Z,58.9
2018-11-07T05:46:28.462Z,59.1
2018-11-07T05:51:23.893Z,59.1
2018-11-07T05:56:19.330Z,59.1
2018-11-07T06:01:15.567Z,59.4
2018-11-07T06:06:10.668Z,59.6
2018-11-07T06:11:06.025Z,59.4
2018-11-07T06:16:01.536Z,59.2
2018-11-07T06:20:56.524Z,59
2018-11-07T06:25:52.185Z,59.3
2018-11-07T06:30:47.295Z,59.1
2018-11-07T06:35:42.244Z,59.2
2018-11-07T06:40:37.675Z,59.3
2018-11-07T06:45:32.824Z,59.6
2018-11-07T06:50:28.482Z,59.8
2018-11-07T06:55:23.417Z,59.6
2018-11-07T07:00:18.490Z,60.2
2018-11-07T07:05:13.865Z,60.4
2018-11-07T07:10:09.001Z,61.7
2018-11-07T07:15:04.174Z,62
2018-11-07T07:19:59.872Z,61.9
2018-11-07T07:24:55.255Z,61.9
2018-11-07T07:29:50.599Z,62
2018-11-07T07:34:45.823Z,62
2018-11-07T07:39:41.217Z,62.3
2018-11-07T07:44:36.311Z,62.5
2018-11-07T07:49:31.677Z,62.6
2018-11-07T07:54:27.013Z,62.5
2018-11-07T07:59:22.390Z,62.3
2018-11-07T08:04:18.092Z,62.1
2018-11-07T08:09:13.227Z,62.5
2018-11-07T08:14:08.714Z,62.2
2018-11-07T08:19:04.012Z,62.3
2018-11-07T08:23:59.645Z,62.4
2018-11-07T08:28:55.123Z,62.2
2018-11-07T08:33:50.390Z,62.1
2018-11-07T08:38:46.022Z,61.5
2018-11-07T08:43:41.260Z,60.9
2018-11-07T08:48:37.168Z,60.2
2018-11-07T08:53:32.196Z,59.3
2018-11-07T08:58:27.744Z,58.5
2018-11-07T09:03:23.090Z,58.2
2018-11-07T09:08:18.584Z,58
2018-11-07T09:13:14.003Z,57.7
2018-11-07T09:18:09.544Z,57.7
2018-11-07T09:23:05.341Z,56.8
2018-11-07T09:28:00.854Z,56.8
2018-11-07T09:32:56.247Z,56.4
2018-11-07T09:37:51.992Z,56.3
2018-11-07T09:42:47.065Z,56.2
2018-11-07T09:47:42.581Z,55.8
2018-11-07T09:52:37.995Z,55.9
2018-11-07T09:57:33.628Z,55.5
2018-11-07T10:02:29.063Z,55.1
2018-11-07T10:07:24.231Z,54.8
2018-11-07T10:12:19.847Z,54.6
2018-11-07T10:17:15.161Z,54.1
2018-11-07T10:22:10.631Z,54.1
2018-11-07T10:27:06.341Z,53.8
2018-11-07T10:32:01.774Z,53.8
2018-11-07T10:36:57.237Z,53.2
2018-11-07T10:41:52.869Z,52.7
2018-11-07T10:46:48.327Z,52.4
2018-11-07T10:51:43.875Z,52.5
2018-11-07T10:56:39.564Z,52.2
2018-11-07T11:01:35.161Z,52.2
2018-11-07T11:06:30.766Z,52
2018-11-07T11:11:26.550Z,51.6
2018-11-07T11:16:22.073Z,50.9
2018-11-07T11:21:17.472Z,50.8
2018-11-07T11:26:12.906Z,49.8
2018-11-07T11:31:08.629Z,49.4
2018-11-07T11:36:04.253Z,49.1
2018-11-07T11:40:59.642Z,48.7
2018-11-07T11:45:55.215Z,48.3
2018-11-07T11:50:49.833Z,48.1
2018-11-07T11:55:45.134Z,47.4
2018-11-07T12:00:40.958Z,46.9
2018-11-07T12:05:36.518Z,47.2
2018-11-07T12:10:31.667Z,46.3
2018-11-07T12:15:26.952Z,46.3
2018-11-07T12:20:22.057Z,46.5
2018-11-07T12:25:17.754Z,46.2
2018-11-07T12:30:13.173Z,46
2018-11-07T12:35:08.819Z,46
2018-11-07T12:40:04.122Z,46.1
2018-11-07T12:44:59.544Z,46.2
2018-11-07T12:49:55.659Z,45.4
2018-11-07T12:54:51.124Z,45.5
2018-11-07T12:59:46.698Z,45.5
2018-11-07T13:04:42.253Z,45.8
2018-11-07T13:09:37.562Z,46.1
2018-11-07T13:14:33.193Z,45.6
2018-11-07T13:19:28.306Z,45.7
2018-11-07T13:24:24.080Z,46
2018-11-07T13:29:19.478Z,46.2
2018-11-07T13:34:14.676Z,46.5
2018-11-07T13:39:10.226Z,46.6
2018-11-07T13:44:05.463Z,46.7
2018-11-07T13:49:00.949Z,46.8
2018-11-07T13:53:56.818Z,47
2018-11-07T13:58:52.220Z,47.2
2018-11-07T14:03:47.471Z,47.1
2018-11-07T14:08:42.994Z,47.3
2018-11-07T14:13:38.400Z,47.4
2018-11-07T14:18:33.901Z,47.4
2018-11-07T14:23:29.555Z,47.6
2018-11-07T14:28:25.253Z,47.8
2018-11-07T14:33:20.732Z,47.9
2018-11-07T14:38:16.158Z,48.3
2018-11-07T14:43:11.318Z,48.5
2018-11-07T14:48:06.676Z,48.7
2018-11-07T14:53:02.657Z,48.8
2018-11-07T14:57:58.014Z,49
2018-11-07T15:02:53.528Z,49.1
2018-11-07T15:07:49.217Z,49.6
2018-11-07T15:12:44.509Z,50
2018-11-07T15:17:40.034Z,50
2018-11-07T15:22:34.824Z,49.9
2018-11-07T15:27:30.138Z,50.2
2018-11-07T15:32:25.660Z,50.4
2018-11-07T15:37:20.832Z,50.5
2018-11-07T15:42:16.343Z,50.8
2018-11-07T15:47:11.832Z,50.9
2018-11-07T15:52:07.382Z,51.2
2018-11-07T15:57:02.256Z,51.6
2018-11-07T16:01:57.463Z,51.8
2018-11-07T16:06:55.481Z,52.2
2018-11-07T16:11:50.642Z,51.8
2018-11-07T16:16:45.888Z,51.8
2018-11-07T16:21:41.583Z,51.9
2018-11-07T16:26:36.977Z,52.2
2018-11-07T16:31:32.238Z,52.5
2018-11-07T16:36:26.220Z,52.7
2018-11-07T16:41:21.752Z,52.8
2018-11-07T16:46:16.830Z,53
2018-11-07T16:51:12.386Z,53.3
2018-11-07T16:56:07.686Z,53.1
2018-11-07T17:01:02.921Z,53.1
2018-11-07T17:05:58.262Z,53.4
2018-11-07T17:10:53.601Z,53.1
2018-11-07T17:15:49.134Z,53.2
2018-11-07T17:20:44.530Z,52.9
2018-11-07T17:25:39.942Z,53.1
2018-11-07T17:30:34.790Z,52.9
2018-11-07T17:35:30.036Z,52.9
2018-11-07T17:40:25.374Z,53.4
2018-11-07T17:45:20.651Z,53.4
2018-11-07T17:50:16.450Z,53.5
2018-11-07T17:55:11.679Z,53.7
2018-11-07T18:00:07.536Z,53.9
2018-11-07T18:05:03.040Z,54.5
2018-11-07T18:09:58.587Z,54.4
2018-11-07T18:14:53.693Z,54.5
2018-11-07T18:19:49.141Z,54.7
2018-11-07T18:24:44.571Z,54.6
2018-11-07T18:29:39.604Z,54.7
2018-11-07T18:34:34.882Z,55
2018-11-07T18:39:30.647Z,55.1
2018-11-07T18:44:25.835Z,55.2
2018-11-07T18:49:21.319Z,55.3
2018-11-07T18:54:16.530Z,55.4
2018-11-07T18:59:12.117Z,55.2
2018-11-07T19:04:07.204Z,55.1
2018-11-07T19:09:02.516Z,55.2
2018-11-07T19:13:57.922Z,55.4
2018-11-07T19:18:53.312Z,55.5
2018-11-07T19:23:48.709Z,55.5
2018-11-07T19:28:44.154Z,55.6
2018-11-07T19:33:39.527Z,55.7
2018-11-07T19:38:35.009Z,56
2018-11-07T19:43:30.815Z,56
2018-11-07T19:48:26.454Z,56.1
2018-11-07T19:53:22.185Z,56
2018-11-07T19:58:17.880Z,56.1
2018-11-07T20:03:13.249Z,56
2018-11-07T20:08:08.552Z,56.1
2018-11-07T20:13:03.413Z,56.4
2018-11-07T20:17:59.082Z,56.4
2018-11-07T20:22:54.413Z,56.6
2018-11-07T20:27:49.241Z,56.7
2018-11-07T20:32:42.974Z,56.8
2018-11-07T20:37:38.392Z,57.1
2018-11-07T20:42:33.807Z,57.2
2018-11-07T20:47:29.168Z,57.2
2018-11-07T20:52:24.410Z,57.1
2018-11-07T20:57:19.967Z,57.2
2018-11-07T21:02:15.452Z,57.3
2018-11-07T21:07:10.754Z,57.4
2018-11-07T21:12:06.141Z,57.3
2018-11-07T21:17:01.543Z,57.6
2018-11-07T21:21:56.840Z,57.4
2018-11-07T21:26:52.315Z,57.4
2018-11-07T21:31:47.595Z,57.9
2018-11-07T21:36:43.023Z,57.5
2018-11-07T21:41:38.200Z,57.7
2018-11-07T21:46:33.868Z,58
2018-11-07T21:51:29.186Z,58.1
2018-11-07T21:56:25.206Z,57.9
2018-11-07T22:01:20.645Z,58.2
2018-11-07T22:06:15.962Z,58.2
2018-11-07T22:11:11.244Z,58.3
2018-11-07T22:16:06.683Z,58.5
2018-11-07T22:21:01.883Z,58.6
2018-11-07T22:25:57.442Z,58.4
2018-11-07T22:30:53.052Z,58.4
2018-11-07T22:35:48.748Z,58.5
2018-11-07T22:40:44.180Z,58.5
2018-11-07T22:45:40.010Z,58.6
2018-11-07T22:50:35.152Z,58.7
2018-11-07T22:55:31.026Z,58.6
2018-11-07T23:00:26.475Z,58.9
2018-11-07T23:05:22.113Z,58.8
2018-11-07T23:10:17.542Z,59.1
2018-11-07T23:15:13.050Z,59.1
2018-11-07T23:20:08.592Z,59.2
2018-11-07T23:25:04.173Z,59.5
2018-11-07T23:29:59.002Z,59.8
2018-11-07T23:34:54.547Z,59.5
2018-11-07T23:39:49.750Z,60
2018-11-07T23:44:45.067Z,60
2018-11-07T23:49:40.475Z,60.1
2018-11-07T23:54:36.321Z,60.2
2018-11-07T23:59:31.780Z,60.1
